Terminal Aerodrome Forecast
Issued by NWS Blacksburg, VA

Home | Current Version | Previous Version | Text Only | Print | Product List | Glossary On
Versions: 1 2 3 4 5 6 7 8 9 10 11 12 13 14 15 16 17 18 19 20 21 22 23
000
FTUS41 KRNK 292323
TAFROA
TAF
KROA 292323Z 3000/3024 15008KT P6SM BKN035
     FM300200 VRB03KT P6SM BKN030
     FM300800 00000KT 6SM BR OVC025
     FM301000 00000KT 4SM BR OVC015
     FM301500 15003KT 6SM BR SCT015 BKN025
     FM301700 14005KT P6SM SCT025
     FM302000 15007KT P6SM SCT045=

USA.gov is the U.S. government's official web portal to all federal, state and local government web resources and services.